Time,TemperatureF,DewpointF,PressureIn,WindDirection,WindDirectionDegrees,WindSpeedMPH,WindSpeedGustMPH,Humidity,HourlyPrecipIn,Conditions,Clouds,dailyrainin,SolarRadiationWatts/m^2,SoftwareType,DateUTC
2013-07-22 00:22:00,72.0,22.0,-100.00,East,95,0.0,10.0,15,0.00,,,0.00,5.000000,,2013-07-22 04:22:00,
2013-07-22 00:33:00,72.0,22.0,-100.00,East,95,0.0,10.0,15,0.00,,,0.00,5.000000,,2013-07-22 04:33:00,
2013-07-22 00:43:00,72.0,22.0,-100.00,East,95,0.0,10.0,15,0.00,,,0.00,5.000000,,2013-07-22 04:43:00,
2013-07-22 01:22:00,70.0,20.0,-100.00,East,97,0.0,2.0,15,0.00,,,0.00,0.000000,,2013-07-22 05:22:00,
2013-07-22 01:32:00,70.0,20.0,-100.00,East,97,0.0,2.0,15,0.00,,,0.00,0.000000,,2013-07-22 05:32:00,
2013-07-22 01:42:00,70.0,20.0,-100.00,East,97,0.0,2.0,15,0.00,,,0.00,0.000000,,2013-07-22 05:42:00,
2013-07-22 01:52:00,70.0,20.0,-100.00,East,97,0.0,2.0,15,0.00,,,0.00,0.000000,,2013-07-22 05:52:00,
2013-07-22 02:32:00,71.0,19.0,-100.00,ENE,60,0.0,2.0,14,0.00,,,0.00,0.000000,,2013-07-22 06:32:00,
2013-07-22 02:43:00,71.0,19.0,-100.00,ENE,60,0.0,2.0,14,0.00,,,0.00,0.000000,,2013-07-22 06:43:00,
2013-07-22 03:22:00,69.0,19.0,-100.00,ESE,102,0.0,5.0,15,-99.99,,,0.00,0.000000,,2013-07-22 07:22:00,
2013-07-22 03:33:00,69.0,19.0,-100.00,ESE,102,0.0,5.0,15,-99.99,,,0.00,0.000000,,2013-07-22 07:33:00,
2013-07-22 03:43:00,69.0,19.0,-100.00,ESE,102,0.0,5.0,15,-99.99,,,0.00,0.000000,,2013-07-22 07:43:00,
2013-07-22 05:22:00,67.0,23.0,-100.00,NE,54,0.0,0.0,19,-99.99,,,0.00,0.000000,,2013-07-22 09:22:00,
2013-07-22 05:33:00,67.0,23.0,-100.00,NE,54,0.0,0.0,19,-99.99,,,0.00,0.000000,,2013-07-22 09:33:00,
2013-07-22 05:52:00,67.0,23.0,-100.00,NE,54,0.0,0.0,19,-99.99,,,0.00,0.000000,,2013-07-22 09:52:00,
2013-07-22 06:22:00,65.0,24.0,-100.00,WNW,286,0.0,0.0,21,-99.99,,,0.00,0.000000,,2013-07-22 10:22:00,
2013-07-22 06:43:00,65.0,24.0,-100.00,WNW,286,0.0,0.0,21,-99.99,,,0.00,0.000000,,2013-07-22 10:43:00,
2013-07-22 07:32:00,65.0,24.0,-100.00,ESE,113,0.0,2.0,21,0.00,,,0.00,0.000000,,2013-07-22 11:32:00,
2013-07-22 07:43:00,65.0,24.0,-100.00,ESE,113,0.0,2.0,21,0.00,,,0.00,0.000000,,2013-07-22 11:43:00,
2013-07-22 08:22:00,65.0,24.0,-100.00,NNE,32,0.0,2.0,21,-99.99,,,0.00,0.000000,,2013-07-22 12:22:00,
2013-07-22 09:22:00,62.0,24.0,-100.00,NE,47,0.0,0.0,23,-99.99,,,-99.99,10.000000,,2013-07-22 13:22:00,
2013-07-22 09:32:00,62.0,24.0,-100.00,NE,47,0.0,0.0,23,-99.99,,,-99.99,10.000000,,2013-07-22 13:32:00,
2013-07-22 09:43:00,62.0,24.0,-100.00,NE,47,0.0,0.0,23,-99.99,,,-99.99,10.000000,,2013-07-22 13:43:00,
2013-07-22 09:53:00,62.0,24.0,-100.00,NE,47,0.0,0.0,23,-99.99,,,-99.99,10.000000,,2013-07-22 13:53:00,
2013-07-22 10:32:00,63.0,25.0,-100.00,North,5,0.0,0.0,23,0.00,,,0.00,25.000000,,2013-07-22 14:32:00,
2013-07-22 10:42:00,63.0,25.0,-100.00,North,5,0.0,0.0,23,0.00,,,0.00,25.000000,,2013-07-22 14:42:00,
2013-07-22 10:53:00,63.0,25.0,-100.00,North,5,0.0,0.0,23,0.00,,,0.00,25.000000,,2013-07-22 14:53:00,
2013-07-22 11:32:00,72.0,27.0,-100.00,NW,318,0.0,3.0,19,0.00,,,0.00,410.000000,,2013-07-22 15:32:00,
2013-07-22 11:42:00,72.0,27.0,-100.00,NW,318,0.0,3.0,19,0.00,,,0.00,410.000000,,2013-07-22 15:42:00,
2013-07-22 11:52:00,72.0,27.0,-100.00,NW,318,0.0,3.0,19,0.00,,,0.00,410.000000,,2013-07-22 15:52:00,
2013-07-22 12:32:00,74.0,26.0,-100.00,WNW,298,3.0,4.0,17,-99.99,,,0.00,654.000000,,2013-07-22 16:32:00,
2013-07-22 12:43:00,74.0,26.0,-100.00,WNW,298,3.0,4.0,17,-99.99,,,0.00,654.000000,,2013-07-22 16:43:00,
2013-07-22 12:52:00,74.0,26.0,-100.00,WNW,298,3.0,4.0,17,-99.99,,,0.00,654.000000,,2013-07-22 16:52:00,
2013-07-22 15:43:00,79.0,24.0,-100.00,NNE,31,5.0,14.0,13,0.00,,,0.00,1187.000000,,2013-07-22 19:43:00,
2013-07-22 15:53:00,79.0,24.0,-100.00,NNE,31,5.0,14.0,13,0.00,,,0.00,1187.000000,,2013-07-22 19:53:00,
2013-07-22 16:22:00,82.0,22.0,-100.00,ENE,78,3.0,14.0,11,0.00,,,0.00,1247.000000,,2013-07-22 20:22:00,
2013-07-22 16:32:00,82.0,22.0,-100.00,ENE,78,3.0,14.0,11,0.00,,,0.00,1247.000000,,2013-07-22 20:32:00,
2013-07-22 16:43:00,82.0,22.0,-100.00,ENE,78,3.0,14.0,11,0.00,,,0.00,1247.000000,,2013-07-22 20:43:00,
2013-07-22 16:52:00,82.0,22.0,-100.00,ENE,78,3.0,14.0,11,0.00,,,0.00,1247.000000,,2013-07-22 20:52:00,
2013-07-22 18:22:00,87.0,21.0,-100.00,SW,226,6.0,15.0,9,0.00,,,0.00,1158.000000,,2013-07-22 22:22:00,
2013-07-22 18:32:00,87.0,21.0,-100.00,SW,226,6.0,15.0,9,0.00,,,0.00,1158.000000,,2013-07-22 22:32:00,
2013-07-22 18:43:00,87.0,21.0,-100.00,SW,226,6.0,15.0,9,0.00,,,0.00,1158.000000,,2013-07-22 22:43:00,
2013-07-22 18:52:00,87.0,21.0,-100.00,SW,226,6.0,15.0,9,0.00,,,0.00,1158.000000,,2013-07-22 22:52:00,
2013-07-22 19:42:00,87.0,26.0,-100.00,WNW,296,4.0,18.0,11,0.00,,,0.00,989.000000,,2013-07-22 23:42:00,
2013-07-22 19:52:00,87.0,26.0,-100.00,WNW,296,4.0,18.0,11,0.00,,,0.00,989.000000,,2013-07-22 23:52:00,
2013-07-22 20:43:00,84.0,24.0,-100.00,NNW,336,5.0,14.0,11,0.00,,,0.00,806.000000,,2013-07-23 00:43:00,
2013-07-22 20:52:00,84.0,24.0,-100.00,NNW,336,5.0,14.0,11,0.00,,,0.00,806.000000,,2013-07-23 00:52:00,
2013-07-22 21:22:00,82.0,24.0,-100.00,North,349,6.0,16.0,12,0.00,,,0.00,571.000000,,2013-07-23 01:22:00,
2013-07-22 21:32:00,82.0,24.0,-100.00,North,349,6.0,16.0,12,0.00,,,0.00,571.000000,,2013-07-23 01:32:00,
2013-07-22 21:43:00,82.0,24.0,-100.00,North,349,6.0,16.0,12,0.00,,,0.00,571.000000,,2013-07-23 01:43:00,
2013-07-22 21:53:00,82.0,24.0,-100.00,North,349,6.0,16.0,12,0.00,,,0.00,571.000000,,2013-07-23 01:53:00,
2013-07-22 22:22:00,81.0,27.0,-100.00,NW,313,4.0,14.0,14,0.00,,,0.00,338.000000,,2013-07-23 02:22:00,
2013-07-22 22:33:00,81.0,27.0,-100.00,NW,313,4.0,14.0,14,0.00,,,0.00,338.000000,,2013-07-23 02:33:00,
2013-07-22 22:43:00,81.0,27.0,-100.00,NW,313,4.0,14.0,14,0.00,,,0.00,338.000000,,2013-07-23 02:43:00,
2013-07-22 22:52:00,81.0,27.0,-100.00,NW,313,4.0,14.0,14,0.00,,,0.00,338.000000,,2013-07-23 02:52:00,
2013-07-22 23:22:00,74.0,28.0,-100.00,NNW,332,1.0,15.0,18,0.00,,,0.00,108.000000,,2013-07-23 03:22:00,
2013-07-22 23:33:00,74.0,28.0,-100.00,NNW,332,1.0,15.0,18,0.00,,,0.00,108.000000,,2013-07-23 03:33:00,
2013-07-22 23:43:00,74.0,28.0,-100.00,NNW,332,1.0,15.0,18,0.00,,,0.00,108.000000,,2013-07-23 03:43:00,
2013-07-22 23:52:00,74.0,28.0,-100.00,NNW,332,1.0,15.0,18,0.00,,,0.00,108.000000,,2013-07-23 03:52:00,